Time;durP1;ratioP1;P1;durP2;ratioP2;P2;SDS_P1;SDS_P2;PMS_P1;PMS_P2;Temp;Humidity;BMP_temperature;BMP_pressure;BME280_temperature;BME280_humidity;BME280_pressure;Samples;Min_cycle;Max_cycle;Signal;HPM_P1;HPM_P2
2021/05/24 00:01:00;;;;;;;2.75;1.30;;;;;;;;;;5036384;28;20037;-74
2021/05/24 00:03:25;;;;;;;6.03;1.35;;;;;;;;;;5054508;28;20041;-75
2021/05/24 00:05:51;;;;;;;1.35;1.10;;;;;;;;;;5054174;28;20036;-75
2021/05/24 00:08:17;;;;;;;7.05;1.23;;;;;;;;;;5054190;28;20032;-75
2021/05/24 00:10:44;;;;;;;1.10;0.98;;;;;;;;;;5053421;28;20514;-75
2021/05/24 00:13:12;;;;;;;9.07;1.30;;;;;;;;;;5036261;28;20045;-75
2021/05/24 00:15:40;;;;;;;2.72;1.23;;;;;;;;;;5054233;28;20044;-75
2021/05/24 00:18:06;;;;;;;4.43;1.30;;;;;;;;;;5052878;28;20386;-75
2021/05/24 00:20:35;;;;;;;7.50;1.42;;;;;;;;;;5053955;28;20036;-75
2021/05/24 00:23:01;;;;;;;2.20;1.30;;;;;;;;;;5053908;28;20095;-75
2021/05/24 00:25:29;;;;;;;5.97;1.90;;;;;;;;;;5054090;28;20036;-75
2021/05/24 00:27:55;;;;;;;2.45;1.67;;;;;;;;;;5053769;28;20094;-75
2021/05/24 00:30:22;;;;;;;2.35;1.45;;;;;;;;;;5053930;28;20078;-75
2021/05/24 00:32:47;;;;;;;4.20;1.75;;;;;;;;;;5052933;28;20541;-75
2021/05/24 00:35:13;;;;;;;4.97;1.30;;;;;;;;;;5053288;28;20045;-75
2021/05/24 00:37:39;;;;;;;1.90;1.00;;;;;;;;;;5053584;28;20132;-75
2021/05/24 00:40:06;;;;;;;1.58;1.15;;;;;;;;;;5052863;28;20048;-75
2021/05/24 00:42:33;;;;;;;2.95;1.83;;;;;;;;;;5052982;28;20060;-75
2021/05/24 00:44:59;;;;;;;2.72;1.60;;;;;;;;;;5053803;28;20094;-75
2021/05/24 00:47:24;;;;;;;2.72;1.40;;;;;;;;;;5053470;28;20029;-75
2021/05/24 00:49:49;;;;;;;3.83;1.20;;;;;;;;;;5053539;28;20471;-75
2021/05/24 00:52:15;;;;;;;3.30;1.52;;;;;;;;;;5053312;28;20572;-75
2021/05/24 00:54:41;;;;;;;2.72;2.00;;;;;;;;;;5053554;28;20040;-75
2021/05/24 00:57:08;;;;;;;2.95;1.45;;;;;;;;;;5053505;28;20501;-75
2021/05/24 00:59:35;;;;;;;3.70;1.80;;;;;;;;;;5053204;28;20067;-75
2021/05/24 01:02:00;;;;;;;5.10;1.65;;;;;;;;;;5035150;28;20425;-75
2021/05/24 01:04:26;;;;;;;5.18;1.80;;;;;;;;;;5052702;28;20039;-75
2021/05/24 01:06:54;;;;;;;2.13;1.33;;;;;;;;;;5053230;28;20078;-75
2021/05/24 01:09:19;;;;;;;2.05;1.45;;;;;;;;;;5053152;28;20029;-75
2021/05/24 01:11:48;;;;;;;2.85;1.27;;;;;;;;;;5052597;28;20055;-75
2021/05/24 01:14:14;;;;;;;3.45;1.60;;;;;;;;;;5035884;28;20083;-75
2021/05/24 01:16:42;;;;;;;2.72;1.38;;;;;;;;;;5053705;28;20032;-75
2021/05/24 01:19:07;;;;;;;2.08;1.50;;;;;;;;;;5053216;28;20048;-75
2021/05/24 01:21:33;;;;;;;4.25;1.60;;;;;;;;;;5053024;28;20048;-75
2021/05/24 01:23:58;;;;;;;1.83;1.30;;;;;;;;;;5035875;28;20134;-75
2021/05/24 01:26:24;;;;;;;3.08;1.50;;;;;;;;;;5053308;28;20033;-75
2021/05/24 01:28:49;;;;;;;13.15;2.88;;;;;;;;;;5035742;28;20075;-75
2021/05/24 01:31:15;;;;;;;4.65;2.22;;;;;;;;;;5053705;28;20094;-75
2021/05/24 01:33:40;;;;;;;5.18;1.70;;;;;;;;;;5053196;28;20087;-75
2021/05/24 01:36:11;;;;;;;6.25;1.60;;;;;;;;;;5053064;28;20091;-75
2021/05/24 01:38:41;;;;;;;2.58;1.40;;;;;;;;;;5052145;28;20108;-75
2021/05/24 01:41:09;;;;;;;3.10;1.55;;;;;;;;;;5053386;28;20385;-75
2021/05/24 01:43:35;;;;;;;7.78;1.55;;;;;;;;;;5051984;28;20047;-75
2021/05/24 01:46:01;;;;;;;1.65;1.48;;;;;;;;;;5053327;28;20037;-75
2021/05/24 01:48:27;;;;;;;6.70;1.90;;;;;;;;;;5056480;28;20463;-75
2021/05/24 01:50:53;;;;;;;2.00;1.58;;;;;;;;;;5057748;28;20481;-75
2021/05/24 01:53:20;;;;;;;2.70;1.40;;;;;;;;;;5057525;28;20036;-75
2021/05/24 01:55:46;;;;;;;7.05;1.90;;;;;;;;;;5057272;28;20382;-75
2021/05/24 01:58:12;;;;;;;7.88;1.98;;;;;;;;;;5056968;28;20079;-75
2021/05/24 02:00:38;;;;;;;3.80;1.40;;;;;;;;;;5056068;28;20060;-75
2021/05/24 02:03:04;;;;;;;7.18;1.75;;;;;;;;;;5056921;28;20063;-75
2021/05/24 02:05:29;;;;;;;2.45;1.10;;;;;;;;;;5057171;28;20091;-75
2021/05/24 02:07:57;;;;;;;8.85;1.30;;;;;;;;;;5056892;28;20045;-75
2021/05/24 02:10:25;;;;;;;2.28;1.65;;;;;;;;;;5057202;28;20031;-75
2021/05/24 02:12:51;;;;;;;3.55;1.63;;;;;;;;;;5056259;28;20072;-75
2021/05/24 02:15:19;;;;;;;3.42;1.27;;;;;;;;;;5057108;28;20086;-75
2021/05/24 02:17:45;;;;;;;3.40;1.80;;;;;;;;;;5056612;28;20036;-75
2021/05/24 02:20:11;;;;;;;3.92;1.35;;;;;;;;;;5039017;28;20040;-75
2021/05/24 02:22:38;;;;;;;5.00;1.60;;;;;;;;;;5056605;28;20103;-75
2021/05/24 02:25:05;;;;;;;2.47;1.50;;;;;;;;;;5056757;28;20029;-75
2021/05/24 02:27:31;;;;;;;2.92;1.27;;;;;;;;;;5037817;28;20029;-75
2021/05/24 02:29:56;;;;;;;1.90;1.20;;;;;;;;;;5055677;28;20082;-75
2021/05/24 02:32:21;;;;;;;2.72;1.30;;;;;;;;;;5055181;28;20036;-75
2021/05/24 02:34:47;;;;;;;5.13;1.95;;;;;;;;;;5056109;28;20144;-75
2021/05/24 02:37:12;;;;;;;1.42;1.30;;;;;;;;;;5056513;28;20048;-75
2021/05/24 02:39:37;;;;;;;1.60;1.15;;;;;;;;;;5056802;28;20033;-75
2021/05/24 02:42:03;;;;;;;5.20;1.60;;;;;;;;;;5056505;28;20047;-75
2021/05/24 02:44:29;;;;;;;1.48;1.38;;;;;;;;;;5056878;28;20045;-75
2021/05/24 02:46:54;;;;;;;2.30;1.70;;;;;;;;;;5055305;28;20029;-75
2021/05/24 02:49:19;;;;;;;3.92;1.30;;;;;;;;;;5038145;28;20366;-75
2021/05/24 02:51:45;;;;;;;4.75;1.48;;;;;;;;;;5056109;28;20040;-75
2021/05/24 02:54:11;;;;;;;1.38;1.10;;;;;;;;;;5055379;28;20033;-75
2021/05/24 02:56:37;;;;;;;3.25;1.38;;;;;;;;;;5056241;28;20402;-75
2021/05/24 02:59:03;;;;;;;4.10;1.45;;;;;;;;;;5055039;28;20035;-75
2021/05/24 03:01:30;;;;;;;2.67;1.60;;;;;;;;;;5055756;28;20048;-75
2021/05/24 03:03:57;;;;;;;2.70;1.60;;;;;;;;;;5056225;28;20097;-75
2021/05/24 03:06:23;;;;;;;5.32;1.50;;;;;;;;;;5055923;28;20063;-75
2021/05/24 03:08:49;;;;;;;1.80;1.30;;;;;;;;;;5055832;28;20414;-75
2021/05/24 03:11:16;;;;;;;2.25;1.30;;;;;;;;;;5056002;28;20037;-75
2021/05/24 03:13:42;;;;;;;4.05;1.50;;;;;;;;;;5055513;28;20407;-75
2021/05/24 03:16:08;;;;;;;2.42;1.50;;;;;;;;;;5055602;28;20037;-75
2021/05/24 03:18:33;;;;;;;3.33;1.40;;;;;;;;;;5038125;28;20487;-75
2021/05/24 03:20:59;;;;;;;4.85;1.60;;;;;;;;;;5054607;28;20048;-75
2021/05/24 03:23:24;;;;;;;2.90;1.50;;;;;;;;;;5055696;28;20044;-75
2021/05/24 03:25:50;;;;;;;3.90;1.60;;;;;;;;;;5055525;28;20028;-75
2021/05/24 03:28:15;;;;;;;1.92;1.60;;;;;;;;;;5055149;28;20037;-75
2021/05/24 03:30:40;;;;;;;5.10;1.60;;;;;;;;;;5055260;28;20037;-75
2021/05/24 03:33:06;;;;;;;11.40;2.42;;;;;;;;;;5036522;28;20114;-75
2021/05/24 03:35:31;;;;;;;2.00;1.70;;;;;;;;;;5037211;28;20029;-75
2021/05/24 03:37:57;;;;;;;3.00;1.80;;;;;;;;;;5054923;28;20048;-75
2021/05/24 03:40:22;;;;;;;3.38;1.60;;;;;;;;;;5055225;28;20047;-75
2021/05/24 03:42:48;;;;;;;2.67;1.92;;;;;;;;;;5055252;28;20080;-74
2021/05/24 03:45:17;;;;;;;3.13;1.88;;;;;;;;;;5037174;28;20028;-75
2021/05/24 03:47:43;;;;;;;5.50;1.52;;;;;;;;;;5054737;28;20159;-75
2021/05/24 03:50:09;;;;;;;1.92;1.60;;;;;;;;;;5037407;28;20530;-75
2021/05/24 03:52:35;;;;;;;3.03;1.50;;;;;;;;;;5054473;28;20083;-75
2021/05/24 03:55:01;;;;;;;1.42;1.30;;;;;;;;;;5054566;28;20057;-75
2021/05/24 03:57:27;;;;;;;1.20;1.15;;;;;;;;;;5054390;28;20086;-75
2021/05/24 03:59:52;;;;;;;9.52;1.65;;;;;;;;;;5053855;28;20534;-74
2021/05/24 04:02:17;;;;;;;2.28;1.38;;;;;;;;;;5036816;28;20051;-75
2021/05/24 04:04:43;;;;;;;4.70;2.30;;;;;;;;;;5054445;28;20151;-74
2021/05/24 04:07:11;;;;;;;6.43;3.10;;;;;;;;;;5054535;28;20047;-75
2021/05/24 04:09:36;;;;;;;4.47;2.55;;;;;;;;;;5052554;28;20110;-75
2021/05/24 04:12:02;;;;;;;3.70;2.22;;;;;;;;;;5054227;28;20494;-74
2021/05/24 04:14:27;;;;;;;2.00;1.70;;;;;;;;;;5054260;28;20041;-75
2021/05/24 04:16:53;;;;;;;7.53;1.83;;;;;;;;;;5054078;28;20051;-75
2021/05/24 04:19:18;;;;;;;7.13;1.83;;;;;;;;;;5054424;28;20033;-74
2021/05/24 04:21:44;;;;;;;3.28;1.90;;;;;;;;;;5054190;28;20111;-75
2021/05/24 04:24:11;;;;;;;5.65;1.70;;;;;;;;;;5036300;28;20041;-75
2021/05/24 04:26:37;;;;;;;2.85;1.92;;;;;;;;;;5054142;28;20094;-75
2021/05/24 04:29:03;;;;;;;4.63;1.90;;;;;;;;;;5019689;28;20037;-75
2021/05/24 04:31:29;;;;;;;6.25;1.77;;;;;;;;;;5052868;28;20482;-75
2021/05/24 04:33:55;;;;;;;3.53;2.20;;;;;;;;;;5053998;28;20045;-74
2021/05/24 04:36:20;;;;;;;2.80;1.90;;;;;;;;;;5054176;28;20037;-75
2021/05/24 04:38:46;;;;;;;3.22;2.15;;;;;;;;;;5054006;28;20044;-74
2021/05/24 04:41:12;;;;;;;4.80;2.17;;;;;;;;;;5053535;28;20056;-75
2021/05/24 04:43:39;;;;;;;4.65;2.10;;;;;;;;;;5053849;28;20722;-75
2021/05/24 04:46:05;;;;;;;3.92;1.88;;;;;;;;;;5054432;28;20025;-75
2021/05/24 04:48:31;;;;;;;3.20;2.20;;;;;;;;;;5053959;28;20123;-75
2021/05/24 04:50:56;;;;;;;3.97;2.28;;;;;;;;;;5053853;28;20048;-75
2021/05/24 04:53:22;;;;;;;2.78;1.80;;;;;;;;;;5053519;28;20029;-75
2021/05/24 04:55:47;;;;;;;4.25;2.25;;;;;;;;;;5053586;28;20474;-75
2021/05/24 04:58:13;;;;;;;16.73;2.83;;;;;;;;;;5053413;28;20033;-75
2021/05/24 05:00:40;;;;;;;3.90;1.95;;;;;;;;;;5053727;28;20429;-75
2021/05/24 05:03:05;;;;;;;6.03;1.90;;;;;;;;;;5035141;28;20033;-74
2021/05/24 05:05:33;;;;;;;7.22;1.90;;;;;;;;;;5035705;28;20029;-74
2021/05/24 05:07:58;;;;;;;2.10;1.90;;;;;;;;;;5053421;28;20040;-74
2021/05/24 05:10:24;;;;;;;2.35;2.00;;;;;;;;;;5053123;28;20040;-75
2021/05/24 05:12:49;;;;;;;6.38;1.98;;;;;;;;;;5052195;28;20375;-75
2021/05/24 05:15:15;;;;;;;2.55;2.22;;;;;;;;;;5053213;28;20111;-74
2021/05/24 05:17:40;;;;;;;9.20;2.72;;;;;;;;;;5053253;28;20124;-74
2021/05/24 05:20:06;;;;;;;6.00;2.13;;;;;;;;;;5053309;28;20186;-74
2021/05/24 05:22:31;;;;;;;5.70;2.10;;;;;;;;;;5052973;28;20033;-74
2021/05/24 05:24:57;;;;;;;3.78;2.00;;;;;;;;;;5052231;28;20462;-74
2021/05/24 05:27:22;;;;;;;3.42;2.20;;;;;;;;;;5052871;28;20036;-75
2021/05/24 05:29:47;;;;;;;4.40;2.22;;;;;;;;;;5053329;28;20108;-74
2021/05/24 05:32:13;;;;;;;5.15;2.40;;;;;;;;;;5052156;28;20398;-75
2021/05/24 05:34:38;;;;;;;3.50;2.00;;;;;;;;;;5053038;28;20048;-75
2021/05/24 05:37:04;;;;;;;4.97;2.85;;;;;;;;;;5035111;28;20126;-74
2021/05/24 05:39:29;;;;;;;5.13;2.70;;;;;;;;;;5052663;28;20029;-74
2021/05/24 05:41:55;;;;;;;5.45;2.50;;;;;;;;;;5052818;28;20037;-75
2021/05/24 05:44:20;;;;;;;4.30;2.40;;;;;;;;;;5052266;28;20036;-75
2021/05/24 05:46:46;;;;;;;4.45;2.28;;;;;;;;;;5052979;28;20063;-75
2021/05/24 05:49:11;;;;;;;6.20;2.95;;;;;;;;;;5051854;28;20037;-74
2021/05/24 05:51:37;;;;;;;5.82;3.00;;;;;;;;;;5052588;28;20041;-74
2021/05/24 05:54:02;;;;;;;3.53;2.30;;;;;;;;;;5052936;28;20033;-75
2021/05/24 05:56:28;;;;;;;3.22;2.50;;;;;;;;;;5052728;28;20056;-75
2021/05/24 05:58:53;;;;;;;2.83;2.17;;;;;;;;;;5053029;28;20037;-74
2021/05/24 06:01:19;;;;;;;3.50;2.45;;;;;;;;;;5052828;28;20120;-75
2021/05/24 06:03:44;;;;;;;4.60;2.45;;;;;;;;;;5052069;28;20040;-74
2021/05/24 06:06:12;;;;;;;6.30;2.42;;;;;;;;;;5052935;28;20025;-74
2021/05/24 06:08:37;;;;;;;4.47;2.60;;;;;;;;;;5052473;28;20355;-74
2021/05/24 06:11:03;;;;;;;3.65;2.50;;;;;;;;;;5052164;28;20037;-74
2021/05/24 06:13:28;;;;;;;5.57;2.75;;;;;;;;;;5052338;28;20036;-74
2021/05/24 06:15:56;;;;;;;6.55;2.95;;;;;;;;;;5052341;28;20045;-74
2021/05/24 06:18:22;;;;;;;2.72;2.20;;;;;;;;;;5051743;28;20044;-74
2021/05/24 06:20:48;;;;;;;4.35;2.40;;;;;;;;;;5052731;28;20037;-74
2021/05/24 06:23:14;;;;;;;7.32;3.55;;;;;;;;;;5052073;28;20044;-74
2021/05/24 06:25:41;;;;;;;2.60;1.70;;;;;;;;;;5051913;28;20037;-74
2021/05/24 06:28:07;;;;;;;7.50;2.42;;;;;;;;;;5052564;28;20041;-73
2021/05/24 06:30:33;;;;;;;1.95;1.35;;;;;;;;;;5052214;28;20540;-76
2021/05/24 06:32:58;;;;;;;2.08;1.38;;;;;;;;;;5052475;28;20115;-73
2021/05/24 06:35:24;;;;;;;4.40;1.73;;;;;;;;;;5056503;28;20057;-75
2021/05/24 06:37:50;;;;;;;4.40;1.60;;;;;;;;;;5055497;28;20051;-78
2021/05/24 06:40:15;;;;;;;6.82;1.50;;;;;;;;;;5056017;28;20041;-76
2021/05/24 06:42:41;;;;;;;4.35;1.42;;;;;;;;;;5039441;28;20047;-77
2021/05/24 06:45:09;;;;;;;4.15;1.30;;;;;;;;;;5056557;28;20482;-77
2021/05/24 06:47:35;;;;;;;2.17;1.40;;;;;;;;;;5056539;28;20044;-78
2021/05/24 06:50:00;;;;;;;2.00;1.10;;;;;;;;;;5058547;28;20033;-78
2021/05/24 06:52:25;;;;;;;2.65;1.17;;;;;;;;;;5058282;28;20487;-78
2021/05/24 06:54:51;;;;;;;3.42;1.30;;;;;;;;;;5056266;28;20372;-78
2021/05/24 06:57:16;;;;;;;1.65;1.10;;;;;;;;;;5057963;28;20179;-79
2021/05/24 06:59:42;;;;;;;2.88;1.33;;;;;;;;;;5057218;28;20072;-78
2021/05/24 07:02:09;;;;;;;4.25;1.30;;;;;;;;;;5037440;28;20037;-77
2021/05/24 07:04:35;;;;;;;3.72;2.22;;;;;;;;;;5055133;28;20037;-75
2021/05/24 07:07:00;;;;;;;3.15;1.17;;;;;;;;;;5055169;28;20037;-76
2021/05/24 07:09:26;;;;;;;4.80;1.40;;;;;;;;;;5037619;28;20049;-76
2021/05/24 07:11:52;;;;;;;3.10;1.58;;;;;;;;;;5055526;28;20041;-77
2021/05/24 07:14:17;;;;;;;2.95;1.35;;;;;;;;;;5055543;28;20037;-78
2021/05/24 07:16:43;;;;;;;2.83;1.27;;;;;;;;;;5055292;28;20083;-76
2021/05/24 07:19:08;;;;;;;2.60;1.70;;;;;;;;;;5070671;28;20032;-75
2021/05/24 07:21:34;;;;;;;2.50;1.00;;;;;;;;;;5062928;28;20463;-75
2021/05/24 07:23:59;;;;;;;2.15;1.33;;;;;;;;;;5055065;28;20037;-78
2021/05/24 07:26:25;;;;;;;5.80;1.20;;;;;;;;;;5055504;28;20036;-74
2021/05/24 07:28:50;;;;;;;2.80;1.08;;;;;;;;;;5055412;28;20063;-75
2021/05/24 07:31:16;;;;;;;1.15;0.75;;;;;;;;;;5055246;28;20051;-76
2021/05/24 07:33:41;;;;;;;2.55;1.13;;;;;;;;;;5055361;28;20048;-75
2021/05/24 07:36:06;;;;;;;2.08;1.10;;;;;;;;;;5056418;28;20037;-79
2021/05/24 07:38:32;;;;;;;2.50;1.42;;;;;;;;;;5040319;28;20119;-79
2021/05/24 07:40:58;;;;;;;4.00;0.90;;;;;;;;;;5040548;28;20041;-80
2021/05/24 07:43:23;;;;;;;3.45;0.80;;;;;;;;;;5059862;28;20063;-79
2021/05/24 07:45:50;;;;;;;2.10;0.85;;;;;;;;;;5045572;28;20043;-75
2021/05/24 07:48:15;;;;;;;2.10;0.90;;;;;;;;;;5064824;28;20036;-79
2021/05/24 07:50:40;;;;;;;5.05;1.00;;;;;;;;;;5042698;28;20115;-77
2021/05/24 07:53:06;;;;;;;1.85;0.60;;;;;;;;;;5059870;28;20092;-79
2021/05/24 07:55:31;;;;;;;1.65;0.68;;;;;;;;;;5064909;28;20059;-80
2021/05/24 07:57:57;;;;;;;3.38;0.70;;;;;;;;;;5044691;28;20044;-78
2021/05/24 08:00:26;;;;;;;0.98;0.55;;;;;;;;;;5045603;28;20037;-78
2021/05/24 08:02:51;;;;;;;3.53;0.73;;;;;;;;;;5065127;28;20033;-80
2021/05/24 08:05:18;;;;;;;2.60;0.77;;;;;;;;;;5050199;28;20393;-78
2021/05/24 08:07:43;;;;;;;1.73;0.85;;;;;;;;;;5060857;28;20028;-77
2021/05/24 08:10:10;;;;;;;3.70;0.90;;;;;;;;;;5067408;28;20032;-76
2021/05/24 08:12:38;;;;;;;3.78;0.85;;;;;;;;;;5074763;28;20445;-77
2021/05/24 08:15:08;;;;;;;2.03;0.70;;;;;;;;;;5075121;28;20043;-77
2021/05/24 08:17:33;;;;;;;3.45;0.82;;;;;;;;;;5074766;28;20037;-76
2021/05/24 08:19:59;;;;;;;2.97;0.90;;;;;;;;;;5057480;28;20052;-77
2021/05/24 08:22:24;;;;;;;2.65;1.05;;;;;;;;;;5075944;28;20088;-77
2021/05/24 08:24:50;;;;;;;1.55;0.93;;;;;;;;;;5056932;28;20039;-80
2021/05/24 08:27:15;;;;;;;2.97;0.73;;;;;;;;;;5074842;28;20103;-77
2021/05/24 08:29:41;;;;;;;1.50;0.68;;;;;;;;;;5074974;28;20056;-77
2021/05/24 08:32:06;;;;;;;2.13;0.75;;;;;;;;;;5067660;28;20044;-77
2021/05/24 08:34:32;;;;;;;1.13;0.52;;;;;;;;;;5042467;28;20095;-77
2021/05/24 08:36:57;;;;;;;2.08;0.70;;;;;;;;;;5034300;28;20041;-77
2021/05/24 08:39:22;;;;;;;1.80;0.60;;;;;;;;;;5034146;28;20030;-78
2021/05/24 08:41:51;;;;;;;2.03;0.80;;;;;;;;;;5035706;28;20049;-77
2021/05/24 08:44:17;;;;;;;9.80;0.70;;;;;;;;;;5034722;28;20033;-77
2021/05/24 08:46:44;;;;;;;5.65;0.90;;;;;;;;;;5034038;28;20033;-77
2021/05/24 08:49:09;;;;;;;1.80;0.70;;;;;;;;;;5033913;28;20053;-78
2021/05/24 08:51:34;;;;;;;2.92;0.88;;;;;;;;;;5036045;28;20060;-75
2021/05/24 08:54:01;;;;;;;5.22;0.65;;;;;;;;;;5038323;28;20104;-78
2021/05/24 08:56:26;;;;;;;1.33;0.40;;;;;;;;;;5035427;28;20034;-77
2021/05/24 08:58:57;;;;;;;2.38;0.95;;;;;;;;;;5037526;28;20044;-75
2021/05/24 09:01:22;;;;;;;1.63;0.70;;;;;;;;;;5034881;28;20032;-74
2021/05/24 09:03:57;;;;;;;1.92;0.60;;;;;;;;;;5016442;28;20800;-76
2021/05/24 09:06:37;;;;;;;2.88;0.68;;;;;;;;;;5033801;28;20025;-75
2021/05/24 09:09:11;;;;;;;3.78;0.70;;;;;;;;;;5035077;28;20379;-75
2021/05/24 09:11:37;;;;;;;2.90;0.80;;;;;;;;;;5019163;28;20500;-76
2021/05/24 09:14:14;;;;;;;1.27;0.70;;;;;;;;;;5020488;28;20092;-76
2021/05/24 09:16:40;;;;;;;4.90;0.95;;;;;;;;;;5038564;28;20033;-75
2021/05/24 09:19:18;;;;;;;2.13;0.77;;;;;;;;;;5020331;28;20091;-74
2021/05/24 09:22:01;;;;;;;2.53;0.82;;;;;;;;;;5022735;28;20058;-78
2021/05/24 09:24:30;;;;;;;0.90;0.50;;;;;;;;;;5040412;28;20029;-74
2021/05/24 09:26:58;;;;;;;1.67;0.60;;;;;;;;;;5008994;28;20041;-74
2021/05/24 09:29:25;;;;;;;2.58;0.57;;;;;;;;;;5042335;28;20531;-74
2021/05/24 09:32:17;;;;;;;3.25;0.98;;;;;;;;;;5050934;28;20116;-75
2021/05/24 09:34:44;;;;;;;2.05;1.05;;;;;;;;;;5052749;28;20073;-75
2021/05/24 09:37:11;;;;;;;2.45;0.70;;;;;;;;;;5052741;28;20041;-76
2021/05/24 09:39:36;;;;;;;2.03;0.70;;;;;;;;;;5043459;28;20537;-76
2021/05/24 09:42:20;;;;;;;1.13;0.82;;;;;;;;;;5033596;28;20041;-76
2021/05/24 09:44:51;;;;;;;2.17;0.95;;;;;;;;;;5033389;28;20045;-76
2021/05/24 09:47:38;;;;;;;4.82;0.98;;;;;;;;;;5032949;28;20040;-77
2021/05/24 09:50:11;;;;;;;1.63;0.70;;;;;;;;;;5015459;28;20059;-76
2021/05/24 09:52:38;;;;;;;0.50;0.50;;;;;;;;;;5032981;28;20216;-74
2021/05/24 09:55:25;;;;;;;1.45;0.60;;;;;;;;;;5032655;28;20399;-75
2021/05/24 09:57:54;;;;;;;3.15;0.95;;;;;;;;;;5031924;28;20038;-75
2021/05/24 10:00:24;;;;;;;2.30;0.80;;;;;;;;;;5032704;28;20040;-75
2021/05/24 10:02:53;;;;;;;1.27;0.60;;;;;;;;;;5013349;28;20033;-75
2021/05/24 10:05:18;;;;;;;1.83;0.60;;;;;;;;;;5032773;28;20037;-74
2021/05/24 10:07:44;;;;;;;0.52;0.40;;;;;;;;;;5031847;28;20108;-74
2021/05/24 10:10:11;;;;;;;1.02;0.60;;;;;;;;;;5036279;28;20037;-74
2021/05/24 10:12:37;;;;;;;1.88;0.82;;;;;;;;;;5017746;28;20116;-73
2021/05/24 10:15:04;;;;;;;3.10;0.63;;;;;;;;;;5036458;28;20033;-73
2021/05/24 10:17:31;;;;;;;1.45;0.68;;;;;;;;;;5017793;28;20042;-76
2021/05/24 10:19:58;;;;;;;2.75;0.88;;;;;;;;;;5036046;28;20038;-75
2021/05/24 10:22:23;;;;;;;3.42;0.75;;;;;;;;;;5035382;28;20441;-75
2021/05/24 10:24:49;;;;;;;1.30;0.90;;;;;;;;;;5035865;28;20124;-76
2021/05/24 10:27:16;;;;;;;2.88;0.60;;;;;;;;;;5034967;28;20116;-76
2021/05/24 10:29:41;;;;;;;2.08;0.82;;;;;;;;;;5036233;28;20041;-76
2021/05/24 10:32:08;;;;;;;1.15;0.60;;;;;;;;;;5036200;28;20037;-74
2021/05/24 10:34:38;;;;;;;2.88;0.98;;;;;;;;;;5047187;28;20491;-75
2021/05/24 10:37:07;;;;;;;1.60;0.80;;;;;;;;;;5055958;28;20078;-75
2021/05/24 10:40:06;;;;;;;2.65;0.68;;;;;;;;;;5055793;28;20124;-74
2021/05/24 10:42:42;;;;;;;1.90;0.90;;;;;;;;;;5037695;28;20039;-75
2021/05/24 10:45:18;;;;;;;1.33;0.70;;;;;;;;;;5038009;28;20044;-75
2021/05/24 10:47:58;;;;;;;2.58;0.52;;;;;;;;;;5055508;28;20376;-75
2021/05/24 10:50:25;;;;;;;4.43;1.00;;;;;;;;;;5055217;28;20075;-75
2021/05/24 10:52:57;;;;;;;0.95;0.52;;;;;;;;;;5055462;28;20025;-75
2021/05/24 10:55:25;;;;;;;4.85;0.90;;;;;;;;;;5055523;28;20116;-75
2021/05/24 10:58:15;;;;;;;1.00;0.85;;;;;;;;;;5055519;28;20040;-76
2021/05/24 11:01:01;;;;;;;0.65;0.45;;;;;;;;;;5045372;28;20139;-75
2021/05/24 11:03:26;;;;;;;2.58;0.70;;;;;;;;;;5037255;28;20037;-75
2021/05/24 11:06:15;;;;;;;4.20;0.70;;;;;;;;;;5055357;28;20041;-75
2021/05/24 11:08:48;;;;;;;3.15;0.70;;;;;;;;;;5055314;28;20040;-76
2021/05/24 11:11:24;;;;;;;2.42;0.75;;;;;;;;;;5037524;28;20039;-76
2021/05/24 11:13:51;;;;;;;0.95;0.70;;;;;;;;;;5054937;28;20124;-75
2021/05/24 11:16:16;;;;;;;1.95;1.05;;;;;;;;;;5055079;28;20095;-75
2021/05/24 11:18:42;;;;;;;2.13;0.60;;;;;;;;;;5054621;28;20041;-75
2021/05/24 11:21:13;;;;;;;0.65;0.40;;;;;;;;;;5054990;28;20048;-75
2021/05/24 11:24:04;;;;;;;1.10;0.50;;;;;;;;;;5054787;28;20463;-73
2021/05/24 11:29:07;;;;;;;1.73;0.70;;;;;;;;;;5055145;28;20079;-75
2021/05/24 11:31:39;;;;;;;1.50;0.68;;;;;;;;;;5054930;28;20090;-75
2021/05/24 11:34:09;;;;;;;1.42;0.50;;;;;;;;;;5054827;28;20099;-75
2021/05/24 11:36:34;;;;;;;1.30;0.68;;;;;;;;;;5055026;28;20394;-75
2021/05/24 11:39:11;;;;;;;3.50;0.82;;;;;;;;;;5055139;28;20040;-75
2021/05/24 11:42:06;;;;;;;1.27;0.60;;;;;;;;;;5055016;28;20505;-75
2021/05/24 11:44:36;;;;;;;0.68;0.45;;;;;;;;;;5031995;28;20049;-75
2021/05/24 11:47:10;;;;;;;1.83;0.88;;;;;;;;;;5054768;28;20037;-75
2021/05/24 11:49:41;;;;;;;3.60;1.00;;;;;;;;;;5036639;28;20589;-74
2021/05/24 11:52:09;;;;;;;2.20;0.80;;;;;;;;;;5054862;28;20032;-74
2021/05/24 11:54:36;;;;;;;1.45;0.77;;;;;;;;;;5036588;28;20059;-73
2021/05/24 11:57:08;;;;;;;2.03;0.70;;;;;;;;;;5055289;28;20114;-73
2021/05/24 11:59:34;;;;;;;32.45;20.60;;;;;;;;;;5054482;28;20143;-72
2021/05/24 12:02:04;;;;;;;1.35;0.93;;;;;;;;;;5054326;28;20044;-73
2021/05/24 12:04:38;;;;;;;0.75;0.75;;;;;;;;;;5054192;28;20367;-75
2021/05/24 12:07:06;;;;;;;0.57;0.47;;;;;;;;;;5054299;28;20033;-75
2021/05/24 12:09:32;;;;;;;1.63;0.88;;;;;;;;;;5054407;28;20029;-74
2021/05/24 12:12:00;;;;;;;1.40;0.60;;;;;;;;;;5054132;28;20045;-75
2021/05/24 12:14:25;;;;;;;1.40;0.70;;;;;;;;;;5053943;28;20107;-74
2021/05/24 12:16:53;;;;;;;2.67;0.55;;;;;;;;;;5054230;28;20567;-74
2021/05/24 12:19:20;;;;;;;3.55;1.30;;;;;;;;;;5053814;28;20045;-75
2021/05/24 12:21:46;;;;;;;1.90;0.68;;;;;;;;;;5053763;28;20036;-75
2021/05/24 12:24:12;;;;;;;1.48;0.60;;;;;;;;;;5053910;28;20041;-75
2021/05/24 12:26:46;;;;;;;1.17;0.38;;;;;;;;;;5035947;28;20119;-75
2021/05/24 12:29:11;;;;;;;2.97;0.68;;;;;;;;;;5054106;28;20438;-75
2021/05/24 12:31:45;;;;;;;1.35;0.75;;;;;;;;;;5053612;28;20045;-75
2021/05/24 12:34:11;;;;;;;1.42;0.82;;;;;;;;;;5053735;28;20095;-75
2021/05/24 12:37:09;;;;;;;1.42;0.63;;;;;;;;;;5053591;28;20040;-75
2021/05/24 12:39:33;;;;;;;2.63;0.57;;;;;;;;;;5049887;28;20064;-75
2021/05/24 12:42:01;;;;;;;0.90;0.57;;;;;;;;;;5053694;28;20041;-76
2021/05/24 12:44:28;;;;;;;0.47;0.47;;;;;;;;;;5053751;28;20044;-76
2021/05/24 12:46:58;;;;;;;0.43;0.43;;;;;;;;;;5053509;28;20032;-76
2021/05/24 12:49:35;;;;;;;3.10;0.70;;;;;;;;;;5055028;28;20136;-75
2021/05/24 12:52:02;;;;;;;5.10;0.88;;;;;;;;;;5053243;28;20416;-75
2021/05/24 12:54:37;;;;;;;1.25;0.73;;;;;;;;;;5053480;28;20029;-75
2021/05/24 12:57:05;;;;;;;2.72;0.77;;;;;;;;;;5053204;28;20435;-76
2021/05/24 12:59:30;;;;;;;3.67;0.80;;;;;;;;;;5035748;28;20069;-75
2021/05/24 13:02:03;;;;;;;3.70;0.90;;;;;;;;;;5053323;28;20072;-75
2021/05/24 13:04:29;;;;;;;6.10;0.77;;;;;;;;;;5053162;28;20071;-75
2021/05/24 13:06:57;;;;;;;2.95;0.80;;;;;;;;;;5053153;28;20447;-76
2021/05/24 13:09:26;;;;;;;0.85;0.40;;;;;;;;;;5052866;28;20048;-77
2021/05/24 13:12:06;;;;;;;2.72;0.50;;;;;;;;;;5052627;28;20032;-75
2021/05/24 13:14:35;;;;;;;2.25;0.68;;;;;;;;;;5053099;28;20126;-75
2021/05/24 13:17:16;;;;;;;4.18;1.00;;;;;;;;;;5053193;28;20056;-76
2021/05/24 13:31:37;;;;;;;2.17;0.90;;;;;;;;;;5028293;28;20049;-73
2021/05/24 13:34:04;;;;;;;1.98;0.85;;;;;;;;;;5038488;28;20062;-75
2021/05/24 13:36:35;;;;;;;2.50;0.80;;;;;;;;;;5063238;28;20078;-75
2021/05/24 13:39:15;;;;;;;4.85;0.80;;;;;;;;;;5041903;28;20435;-75
2021/05/24 13:41:55;;;;;;;2.97;0.75;;;;;;;;;;5053453;28;20065;-75
2021/05/24 13:44:23;;;;;;;1.52;0.63;;;;;;;;;;5056343;28;20039;-75
2021/05/24 13:46:50;;;;;;;2.72;0.73;;;;;;;;;;5057112;28;20037;-75
2021/05/24 13:49:16;;;;;;;2.28;0.70;;;;;;;;;;5056657;28;20052;-75
2021/05/24 13:51:43;;;;;;;1.83;0.73;;;;;;;;;;5057032;28;20052;-76
2021/05/24 13:54:10;;;;;;;3.58;0.50;;;;;;;;;;5042702;28;20033;-75
2021/05/24 13:56:37;;;;;;;3.08;0.50;;;;;;;;;;5066335;28;20032;-75
2021/05/24 13:59:04;;;;;;;2.47;0.70;;;;;;;;;;5063596;28;20036;-75
2021/05/24 14:01:33;;;;;;;4.13;0.70;;;;;;;;;;5065845;28;20040;-75
2021/05/24 14:03:59;;;;;;;1.90;0.70;;;;;;;;;;5060602;28;20025;-75
2021/05/24 14:06:24;;;;;;;2.80;0.75;;;;;;;;;;5065391;28;20441;-75
2021/05/24 14:08:50;;;;;;;2.47;0.57;;;;;;;;;;5065306;28;20036;-75
2021/05/24 14:11:17;;;;;;;1.38;0.55;;;;;;;;;;5066603;28;20033;-75
2021/05/24 14:13:43;;;;;;;2.03;0.70;;;;;;;;;;5064978;28;20482;-75
2021/05/24 14:16:13;;;;;;;5.45;0.80;;;;;;;;;;5064613;28;20505;-75
2021/05/24 14:18:44;;;;;;;1.20;0.50;;;;;;;;;;5061825;28;20486;-75
2021/05/24 14:21:10;;;;;;;2.38;0.70;;;;;;;;;;5059064;28;20207;-75
2021/05/24 14:23:36;;;;;;;1.58;0.80;;;;;;;;;;5061248;28;20040;-75
2021/05/24 14:26:03;;;;;;;5.35;0.80;;;;;;;;;;5063713;28;20025;-75
2021/05/24 14:28:28;;;;;;;3.15;0.50;;;;;;;;;;5060340;28;20040;-74
2021/05/24 14:30:56;;;;;;;1.90;0.77;;;;;;;;;;5063770;28;20477;-75
2021/05/24 14:33:22;;;;;;;1.48;0.60;;;;;;;;;;5064440;28;20036;-75
2021/05/24 14:35:47;;;;;;;2.22;0.73;;;;;;;;;;5064888;28;20036;-75
2021/05/24 14:38:13;;;;;;;2.08;0.73;;;;;;;;;;5047905;28;20475;-75
2021/05/24 14:40:39;;;;;;;1.85;0.70;;;;;;;;;;5060771;28;20374;-75
2021/05/24 14:43:04;;;;;;;5.75;0.90;;;;;;;;;;5064840;28;20036;-75
2021/05/24 14:45:30;;;;;;;6.88;0.75;;;;;;;;;;5057191;28;20037;-75
2021/05/24 14:47:56;;;;;;;1.58;0.90;;;;;;;;;;5021691;28;20048;-75
2021/05/24 14:50:24;;;;;;;3.13;0.60;;;;;;;;;;5055711;28;20090;-75
2021/05/24 14:52:52;;;;;;;2.35;1.00;;;;;;;;;;5055758;28;20033;-74
2021/05/24 14:55:18;;;;;;;2.58;0.80;;;;;;;;;;5055077;28;20044;-75
2021/05/24 14:57:44;;;;;;;2.78;0.70;;;;;;;;;;5060577;28;20040;-73
2021/05/24 15:00:11;;;;;;;3.83;0.70;;;;;;;;;;5063382;28;20033;-73